Time;durP1;ratioP1;P1;durP2;ratioP2;P2;SDS_P1;SDS_P2;PMS_P1;PMS_P2;Temp;Humidity;BMP_temperature;BMP_pressure;BME280_temperature;BME280_humidity;BME280_pressure;Samples;Min_cycle;Max_cycle;Signal;HPM_P1;HPM_P2
2023/05/07 00:01:12;;;;;;;1.73;1.58;;;;;;;;;;10091379;23;20452;-86
2023/05/07 00:05:15;;;;;;;2.45;1.83;;;;;;;;;;10044007;23;20019;-87
2023/05/07 00:09:18;;;;;;;3.00;2.00;;;;;;;;;;10044141;23;20025;-87
2023/05/07 00:13:21;;;;;;;3.28;1.92;;;;;;;;;;10043617;23;20023;-88
2023/05/07 00:17:25;;;;;;;1.95;1.58;;;;;;;;;;10043294;23;20023;-87
2023/05/07 00:21:28;;;;;;;2.28;1.20;;;;;;;;;;10043436;23;20023;-87
2023/05/07 00:25:31;;;;;;;2.92;1.70;;;;;;;;;;10043663;23;20379;-86
2023/05/07 00:29:33;;;;;;;2.47;1.63;;;;;;;;;;10043666;23;20030;-86
2023/05/07 00:33:38;;;;;;;1.20;1.13;;;;;;;;;;10043698;23;20097;-86
2023/05/07 00:37:42;;;;;;;2.45;1.60;;;;;;;;;;10043404;23;20019;-88
2023/05/07 00:41:45;;;;;;;1.98;1.70;;;;;;;;;;10043413;23;20026;-86
2023/05/07 00:45:49;;;;;;;2.33;2.00;;;;;;;;;;10043380;23;20385;-86
2023/05/07 00:49:54;;;;;;;1.75;1.33;;;;;;;;;;10043548;23;20098;-87
2023/05/07 00:53:57;;;;;;;2.00;1.67;;;;;;;;;;10043135;23;20468;-86
2023/05/07 00:58:01;;;;;;;1.35;1.27;;;;;;;;;;10043379;23;20019;-86
2023/05/07 01:02:04;;;;;;;1.80;1.58;;;;;;;;;;10053364;23;20030;-86
2023/05/07 01:06:09;;;;;;;1.50;1.40;;;;;;;;;;10091084;23;20029;-87
2023/05/07 01:10:12;;;;;;;2.15;1.63;;;;;;;;;;10105549;23;20102;-86
2023/05/07 01:14:15;;;;;;;2.90;1.75;;;;;;;;;;10090525;23;20037;-87
2023/05/07 01:18:18;;;;;;;2.88;1.88;;;;;;;;;;10091177;23;20029;-87
2023/05/07 01:22:31;;;;;;;2.90;1.40;;;;;;;;;;10090862;23;20026;-87
2023/05/07 01:26:34;;;;;;;2.80;1.92;;;;;;;;;;10108786;23;20033;-87
2023/05/07 01:30:38;;;;;;;2.80;1.90;;;;;;;;;;10093946;23;20026;-86
2023/05/07 01:34:41;;;;;;;1.75;1.55;;;;;;;;;;10093915;23;20026;-86
2023/05/07 01:38:46;;;;;;;3.20;1.85;;;;;;;;;;10093995;23;20149;-86
2023/05/07 01:42:49;;;;;;;2.38;1.75;;;;;;;;;;10093152;23;20019;-87
2023/05/07 01:46:52;;;;;;;2.70;1.67;;;;;;;;;;10093953;23;20069;-86
2023/05/07 01:50:56;;;;;;;2.90;1.92;;;;;;;;;;10093248;23;20105;-86
2023/05/07 01:55:00;;;;;;;2.53;1.67;;;;;;;;;;10093803;23;20359;-87
2023/05/07 01:59:03;;;;;;;1.85;1.58;;;;;;;;;;10093259;23;20313;-87
2023/05/07 02:03:06;;;;;;;2.25;1.77;;;;;;;;;;10093204;23;20130;-85
2023/05/07 02:07:08;;;;;;;2.28;1.88;;;;;;;;;;10093428;23;20025;-85
2023/05/07 02:11:13;;;;;;;1.98;1.60;;;;;;;;;;10093703;23;20486;-86
2023/05/07 02:15:15;;;;;;;2.03;1.52;;;;;;;;;;10093361;23;20082;-86
2023/05/07 02:19:20;;;;;;;2.38;1.67;;;;;;;;;;10093338;23;20029;-86
2023/05/07 02:23:24;;;;;;;1.80;1.63;;;;;;;;;;10108984;23;20018;-86
2023/05/07 02:27:29;;;;;;;2.97;1.52;;;;;;;;;;10093127;23;20531;-86
2023/05/07 02:31:33;;;;;;;3.00;1.80;;;;;;;;;;10092969;23;20018;-86
2023/05/07 02:35:36;;;;;;;2.35;1.63;;;;;;;;;;10092749;23;20471;-86
2023/05/07 02:39:39;;;;;;;3.10;1.88;;;;;;;;;;10092559;23;20019;-86
2023/05/07 02:43:43;;;;;;;2.70;1.90;;;;;;;;;;10093197;23;20089;-86
2023/05/07 02:47:46;;;;;;;5.07;2.30;;;;;;;;;;10092959;23;20018;-86
2023/05/07 02:51:49;;;;;;;2.75;2.03;;;;;;;;;;10091282;23;20026;-89
2023/05/07 02:55:52;;;;;;;4.18;2.00;;;;;;;;;;10092919;23;20029;-89
2023/05/07 02:59:58;;;;;;;2.25;1.77;;;;;;;;;;10092626;23;20055;-90
2023/05/07 03:04:01;;;;;;;1.60;1.50;;;;;;;;;;10109403;23;20026;-89
2023/05/07 03:08:05;;;;;;;3.15;2.00;;;;;;;;;;10093231;23;20502;-89
2023/05/07 03:12:08;;;;;;;1.63;1.40;;;;;;;;;;10091958;23;20026;-88
2023/05/07 03:16:12;;;;;;;1.50;1.40;;;;;;;;;;10122934;23;20029;-87
2023/05/07 03:20:15;;;;;;;2.25;1.52;;;;;;;;;;10137881;23;20049;-90
2023/05/07 03:24:18;;;;;;;4.47;2.00;;;;;;;;;;10122052;23;20025;-89
2023/05/07 03:28:21;;;;;;;2.05;1.70;;;;;;;;;;10094492;23;20022;-89
2023/05/07 03:32:26;;;;;;;2.05;1.77;;;;;;;;;;10098935;23;20026;-89
2023/05/07 03:36:29;;;;;;;2.13;1.90;;;;;;;;;;10095894;23;20018;-89
2023/05/07 03:40:31;;;;;;;2.33;1.55;;;;;;;;;;10092178;23;20149;-89
2023/05/07 03:44:36;;;;;;;1.70;1.45;;;;;;;;;;10092470;23;20097;-90
2023/05/07 03:48:40;;;;;;;1.45;1.35;;;;;;;;;;10091982;23;20050;-89
2023/05/07 03:52:43;;;;;;;1.80;1.55;;;;;;;;;;10091732;23;20027;-90
2023/05/07 03:56:46;;;;;;;1.50;1.40;;;;;;;;;;10092328;23;20117;-91
2023/05/07 04:00:48;;;;;;;2.10;1.58;;;;;;;;;;10092100;23;20034;-90
2023/05/07 04:04:53;;;;;;;4.75;2.67;;;;;;;;;;10091833;23;20022;-89
2023/05/07 04:08:56;;;;;;;9.20;5.07;;;;;;;;;;10108346;23;20461;-90
2023/05/07 04:12:59;;;;;;;2.55;1.80;;;;;;;;;;10091628;23;20019;-91
2023/05/07 04:17:02;;;;;;;1.50;1.40;;;;;;;;;;10091415;23;20163;-90
2023/05/07 04:21:07;;;;;;;2.13;1.80;;;;;;;;;;10091324;23;20053;-90
2023/05/07 04:25:10;;;;;;;2.35;1.70;;;;;;;;;;10091356;23;20022;-91
2023/05/07 04:29:13;;;;;;;1.60;1.50;;;;;;;;;;10091640;23;20023;-90
2023/05/07 04:33:17;;;;;;;2.22;1.70;;;;;;;;;;10091254;23;20391;-89
2023/05/07 04:37:21;;;;;;;3.42;2.22;;;;;;;;;;10091210;23;20033;-89
2023/05/07 04:41:24;;;;;;;2.10;1.60;;;;;;;;;;10091397;23;20390;-90
2023/05/07 04:45:27;;;;;;;4.97;1.42;;;;;;;;;;10091019;23;20105;-89
2023/05/07 04:49:29;;;;;;;2.15;1.42;;;;;;;;;;10065282;23;20022;-89
2023/05/07 04:53:34;;;;;;;5.72;1.88;;;;;;;;;;10091101;23;20022;-89
2023/05/07 04:57:38;;;;;;;1.55;1.42;;;;;;;;;;10091233;23;20093;-89
2023/05/07 05:01:41;;;;;;;1.52;1.35;;;;;;;;;;10090371;23;20422;-88
2023/05/07 05:05:45;;;;;;;2.38;1.65;;;;;;;;;;10090944;23;20025;-90
2023/05/07 05:09:51;;;;;;;2.17;1.70;;;;;;;;;;10091154;23;20038;-88
2023/05/07 05:13:54;;;;;;;3.25;1.98;;;;;;;;;;10090724;23;20055;-89
2023/05/07 05:17:57;;;;;;;25.33;10.45;;;;;;;;;;10091003;23;20394;-87
2023/05/07 05:22:00;;;;;;;4.53;2.50;;;;;;;;;;10091015;23;20033;-89
2023/05/07 05:26:05;;;;;;;3.17;2.10;;;;;;;;;;10091029;23;20049;-88
2023/05/07 05:30:09;;;;;;;3.70;1.70;;;;;;;;;;10090507;23;20069;-91
2023/05/07 05:34:12;;;;;;;1.58;1.35;;;;;;;;;;10091182;23;20098;-88
2023/05/07 05:38:15;;;;;;;2.05;1.50;;;;;;;;;;10090712;23;20097;-88
2023/05/07 05:42:19;;;;;;;4.15;2.30;;;;;;;;;;10090696;23;20019;-88
2023/05/07 05:46:22;;;;;;;3.03;2.08;;;;;;;;;;10090787;23;20097;-88
2023/05/07 05:50:25;;;;;;;4.72;3.05;;;;;;;;;;10090539;23;20097;-89
2023/05/07 05:54:28;;;;;;;3.75;2.50;;;;;;;;;;10106661;23;20034;-90
2023/05/07 05:58:33;;;;;;;3.15;2.05;;;;;;;;;;10090134;23;20022;-90
2023/05/07 06:02:35;;;;;;;1.50;1.40;;;;;;;;;;10090325;23;20022;-90
2023/05/07 06:06:38;;;;;;;2.35;1.80;;;;;;;;;;10090195;23;20739;-91
2023/05/07 06:10:41;;;;;;;3.35;2.00;;;;;;;;;;10090108;23;20026;-89
2023/05/07 06:14:46;;;;;;;6.70;3.70;;;;;;;;;;10093082;23;20028;-88
2023/05/07 06:18:49;;;;;;;2.80;1.98;;;;;;;;;;10093390;23;20464;-88
2023/05/07 06:22:52;;;;;;;2.47;2.00;;;;;;;;;;10093527;23;20018;-90
2023/05/07 06:26:55;;;;;;;2.10;1.92;;;;;;;;;;10098197;23;20022;-89
2023/05/07 06:31:12;;;;;;;9.77;2.17;;;;;;;;;;10097213;23;20066;-90
2023/05/07 06:35:15;;;;;;;3.90;2.45;;;;;;;;;;10068140;23;20109;-89
2023/05/07 06:39:18;;;;;;;3.55;2.17;;;;;;;;;;10093632;23;20025;-92
2023/05/07 06:43:21;;;;;;;8.23;5.47;;;;;;;;;;10093700;23;20065;-89
2023/05/07 06:47:25;;;;;;;7.10;3.70;;;;;;;;;;10093312;23;20045;-88
2023/05/07 06:51:29;;;;;;;15.05;8.63;;;;;;;;;;10091179;23;20078;-90
2023/05/07 06:55:32;;;;;;;11.15;5.82;;;;;;;;;;10092235;23;20025;-90
2023/05/07 06:59:35;;;;;;;5.72;3.13;;;;;;;;;;10091618;23;20026;-89
2023/05/07 07:03:39;;;;;;;13.30;5.15;;;;;;;;;;10088074;23;20026;-90
2023/05/07 07:07:52;;;;;;;4.97;3.42;;;;;;;;;;10102512;23;20050;-91
2023/05/07 07:11:55;;;;;;;9.40;5.85;;;;;;;;;;10102863;23;20049;-90
2023/05/07 07:15:59;;;;;;;13.73;5.07;;;;;;;;;;10085594;23;20022;-90
2023/05/07 07:20:04;;;;;;;5.15;3.15;;;;;;;;;;10086061;23;20026;-90
2023/05/07 07:24:10;;;;;;;3.20;2.35;;;;;;;;;;10087094;23;20042;-89
2023/05/07 07:28:13;;;;;;;9.50;4.57;;;;;;;;;;10102662;23;20101;-90
2023/05/07 07:32:16;;;;;;;3.03;2.22;;;;;;;;;;10086148;23;20027;-91
2023/05/07 07:36:20;;;;;;;30.73;13.52;;;;;;;;;;10061734;23;20394;-89
2023/05/07 07:40:25;;;;;;;22.52;13.13;;;;;;;;;;10086588;23;20057;-90
2023/05/07 07:44:46;;;;;;;17.05;6.07;;;;;;;;;;10087692;23;20407;-90
2023/05/07 07:48:51;;;;;;;10.10;7.13;;;;;;;;;;10086458;23;20018;-90
2023/05/07 07:52:55;;;;;;;7.47;4.45;;;;;;;;;;10084973;23;20062;-91
2023/05/07 07:56:59;;;;;;;98.43;41.50;;;;;;;;;;10090168;23;20380;-91
2023/05/07 08:01:02;;;;;;;8.80;4.53;;;;;;;;;;10090228;23;20372;-94
2023/05/07 08:05:06;;;;;;;9.50;3.90;;;;;;;;;;10090957;23;20747;-92
2023/05/07 08:09:15;;;;;;;30.23;18.13;;;;;;;;;;10107239;23;20033;-91
2023/05/07 08:13:21;;;;;;;12.15;7.97;;;;;;;;;;10105422;23;20065;-91
2023/05/07 08:17:26;;;;;;;17.50;7.53;;;;;;;;;;10106351;23;20102;-93
2023/05/07 08:21:32;;;;;;;17.67;9.88;;;;;;;;;;10090465;23;20029;-93
2023/05/07 08:25:37;;;;;;;10.13;5.20;;;;;;;;;;10090946;23;20022;-92
2023/05/07 08:29:41;;;;;;;10.77;5.47;;;;;;;;;;10085906;23;20063;-94
2023/05/07 08:33:44;;;;;;;4.70;2.85;;;;;;;;;;10095207;23;20022;-95
2023/05/07 08:37:47;;;;;;;12.40;5.80;;;;;;;;;;10089141;23;20071;-87
2023/05/07 08:42:00;;;;;;;12.45;5.72;;;;;;;;;;10090669;23;20022;-94
2023/05/07 08:46:05;;;;;;;11.43;5.95;;;;;;;;;;10107435;23;20097;-93
2023/05/07 08:50:10;;;;;;;5.20;3.17;;;;;;;;;;10093216;23;20025;-96
2023/05/07 08:54:13;;;;;;;10.95;5.18;;;;;;;;;;10096656;23;20046;-95
2023/05/07 08:58:18;;;;;;;17.98;7.97;;;;;;;;;;10095949;23;20034;-95
2023/05/07 09:02:21;;;;;;;8.55;4.97;;;;;;;;;;10097534;23;20101;-96
2023/05/07 09:06:24;;;;;;;16.40;8.38;;;;;;;;;;10095292;23;20025;-96
2023/05/07 09:10:27;;;;;;;6.70;3.13;;;;;;;;;;10100284;23;20026;-94
2023/05/07 09:14:32;;;;;;;5.35;2.95;;;;;;;;;;10092438;23;20533;-91
2023/05/07 09:18:35;;;;;;;6.43;3.47;;;;;;;;;;10064654;23;20053;-87
2023/05/07 09:22:39;;;;;;;4.90;2.95;;;;;;;;;;10087396;23;20022;-93
2023/05/07 09:26:42;;;;;;;1.90;1.70;;;;;;;;;;10087769;23;20057;-92
2023/05/07 09:30:46;;;;;;;6.28;3.85;;;;;;;;;;10060383;23;20022;-91
2023/05/07 09:34:49;;;;;;;3.67;2.22;;;;;;;;;;10091251;23;20026;-91
2023/05/07 09:38:53;;;;;;;4.35;2.90;;;;;;;;;;10095027;23;20091;-89
2023/05/07 09:42:56;;;;;;;6.53;4.13;;;;;;;;;;10085857;23;20026;-91
2023/05/07 09:47:01;;;;;;;9.02;4.53;;;;;;;;;;10085937;23;20018;-92
2023/05/07 09:51:12;;;;;;;12.48;6.30;;;;;;;;;;10088946;23;20036;-91
2023/05/07 09:55:18;;;;;;;38.60;16.77;;;;;;;;;;10105068;23;20415;-91
2023/05/07 09:59:23;;;;;;;13.63;7.80;;;;;;;;;;10104713;23;20022;-92
2023/05/07 10:03:31;;;;;;;9.48;5.00;;;;;;;;;;10088569;23;20030;-91
2023/05/07 10:07:35;;;;;;;22.65;14.18;;;;;;;;;;10104125;23;20018;-91
2023/05/07 10:11:39;;;;;;;22.45;13.75;;;;;;;;;;10062184;23;20424;-91
2023/05/07 10:15:42;;;;;;;12.15;8.48;;;;;;;;;;10091171;23;20047;-92
2023/05/07 10:19:47;;;;;;;10.07;6.70;;;;;;;;;;10088096;23;20331;-89
2023/05/07 10:23:51;;;;;;;24.70;13.10;;;;;;;;;;10089337;23;20026;-91
2023/05/07 10:27:56;;;;;;;8.32;4.70;;;;;;;;;;10088976;23;20022;-90
2023/05/07 10:32:05;;;;;;;7.75;4.93;;;;;;;;;;10089020;23;20022;-90
2023/05/07 10:36:10;;;;;;;5.75;3.83;;;;;;;;;;10105520;23;20026;-93
2023/05/07 10:40:14;;;;;;;9.45;6.50;;;;;;;;;;10087648;23;20327;-92
2023/05/07 10:44:28;;;;;;;10.73;6.07;;;;;;;;;;10088691;23;20045;-90
2023/05/07 10:48:32;;;;;;;10.70;8.15;;;;;;;;;;10105475;23;20478;-91
2023/05/07 10:52:37;;;;;;;17.20;10.93;;;;;;;;;;10088660;23;20354;-91
2023/05/07 10:56:42;;;;;;;9.90;5.95;;;;;;;;;;10104283;23;20458;-92
2023/05/07 11:00:45;;;;;;;14.80;6.90;;;;;;;;;;10104566;23;20029;-92
2023/05/07 11:05:19;;;;;;;9.35;3.72;;;;;;;;;;10088581;23;20026;-92
2023/05/07 11:09:24;;;;;;;4.00;2.72;;;;;;;;;;10091642;23;20018;-92
2023/05/07 11:13:44;;;;;;;10.85;5.22;;;;;;;;;;10091316;23;20026;-90
2023/05/07 11:17:55;;;;;;;13.30;4.90;;;;;;;;;;10088296;23;20053;-92
2023/05/07 11:21:58;;;;;;;9.43;5.40;;;;;;;;;;10087479;23;20450;-89
2023/05/07 11:26:09;;;;;;;14.48;8.43;;;;;;;;;;10087787;23;20052;-89
2023/05/07 11:30:19;;;;;;;6.07;4.30;;;;;;;;;;10103682;23;20486;-89
2023/05/07 11:34:23;;;;;;;3.88;3.17;;;;;;;;;;10062857;23;20029;-90
2023/05/07 11:38:27;;;;;;;11.20;7.65;;;;;;;;;;10088222;23;20125;-90
2023/05/07 11:42:33;;;;;;;8.10;4.65;;;;;;;;;;10087723;23;20022;-89
2023/05/07 11:46:36;;;;;;;5.80;3.38;;;;;;;;;;10104264;23;20105;-92
2023/05/07 11:50:52;;;;;;;10.35;5.25;;;;;;;;;;10087670;23;20466;-91
2023/05/07 11:54:57;;;;;;;10.38;4.63;;;;;;;;;;10117300;23;20017;-91
2023/05/07 11:59:02;;;;;;;6.65;3.92;;;;;;;;;;10133300;23;20035;-88
2023/05/07 12:03:06;;;;;;;7.22;4.15;;;;;;;;;;10115931;23;20093;-89
2023/05/07 12:07:13;;;;;;;11.07;5.65;;;;;;;;;;10097668;23;20354;-90
2023/05/07 12:11:22;;;;;;;11.25;7.15;;;;;;;;;;10121043;23;20018;-90
2023/05/07 12:15:27;;;;;;;8.77;5.10;;;;;;;;;;10106930;23;20026;-91
2023/05/07 12:19:36;;;;;;;11.13;6.53;;;;;;;;;;10087122;23;20022;-91
2023/05/07 12:23:41;;;;;;;8.73;5.70;;;;;;;;;;10060297;23;20509;-87
2023/05/07 12:27:44;;;;;;;5.68;3.75;;;;;;;;;;10085615;23;20030;-89
2023/05/07 12:31:49;;;;;;;9.43;6.20;;;;;;;;;;10086540;23;20026;-89
2023/05/07 12:35:54;;;;;;;14.20;10.27;;;;;;;;;;10061500;23;20101;-89
2023/05/07 12:40:07;;;;;;;16.55;11.98;;;;;;;;;;10085236;23;20124;-90
2023/05/07 12:44:18;;;;;;;49.08;18.52;;;;;;;;;;10100965;23;20704;-89
2023/05/07 12:48:26;;;;;;;11.63;5.75;;;;;;;;;;10101646;23;20018;-89
2023/05/07 12:52:31;;;;;;;6.65;3.17;;;;;;;;;;10092716;23;20034;-91
2023/05/07 12:56:37;;;;;;;5.65;3.00;;;;;;;;;;10085868;23;20066;-88
2023/05/07 13:00:40;;;;;;;9.77;4.63;;;;;;;;;;10102529;23;20028;-89
2023/05/07 13:04:44;;;;;;;12.10;7.38;;;;;;;;;;10059293;23;20027;-89
2023/05/07 13:08:48;;;;;;;5.68;3.60;;;;;;;;;;10084514;23;20527;-90
2023/05/07 13:12:51;;;;;;;16.00;9.18;;;;;;;;;;10084459;23;20483;-89
2023/05/07 13:16:54;;;;;;;10.48;5.13;;;;;;;;;;10085222;23;20105;-89
2023/05/07 13:21:00;;;;;;;6.95;3.35;;;;;;;;;;10084846;23;20033;-89
2023/05/07 13:30:26;;;;;;;4.68;2.88;;;;;;;;;;10084258;23;20022;-89
2023/05/07 13:34:30;;;;;;;6.55;3.60;;;;;;;;;;10086892;23;20089;-90
2023/05/07 13:38:34;;;;;;;5.15;3.63;;;;;;;;;;10086702;23;20018;-89
2023/05/07 13:42:38;;;;;;;7.45;5.57;;;;;;;;;;10089035;23;20102;-89
2023/05/07 13:46:42;;;;;;;5.15;2.72;;;;;;;;;;10087637;23;20022;-89
2023/05/07 13:50:46;;;;;;;4.03;2.60;;;;;;;;;;10090017;23;20335;-92
2023/05/07 13:54:52;;;;;;;6.15;3.78;;;;;;;;;;10090260;23;20019;-90
2023/05/07 13:58:59;;;;;;;5.85;4.13;;;;;;;;;;10104282;23;20029;-90
2023/05/07 14:03:08;;;;;;;7.57;5.20;;;;;;;;;;10087486;23;20386;-90
2023/05/07 14:07:21;;;;;;;7.25;4.32;;;;;;;;;;10103417;23;20022;-90
2023/05/07 14:11:40;;;;;;;11.68;7.65;;;;;;;;;;10104591;23;20113;-88
2023/05/07 14:15:50;;;;;;;9.45;4.80;;;;;;;;;;10106440;23;20030;-90
2023/05/07 14:19:54;;;;;;;8.77;4.75;;;;;;;;;;10087142;23;20046;-92
2023/05/07 14:24:03;;;;;;;17.10;9.45;;;;;;;;;;10084881;23;20026;-89
2023/05/07 14:28:07;;;;;;;6.60;3.83;;;;;;;;;;10101063;23;20022;-87
2023/05/07 14:32:10;;;;;;;5.53;3.08;;;;;;;;;;10084997;23;20022;-87
2023/05/07 14:36:19;;;;;;;6.10;2.92;;;;;;;;;;10091324;23;20034;-87
2023/05/07 14:40:23;;;;;;;7.15;5.70;;;;;;;;;;10103645;23;20022;-87
2023/05/07 14:44:29;;;;;;;6.05;3.80;;;;;;;;;;10087207;23;20027;-88
2023/05/07 14:48:32;;;;;;;5.03;3.28;;;;;;;;;;10087397;23;20026;-88
2023/05/07 14:52:36;;;;;;;20.65;7.75;;;;;;;;;;10089222;23;20065;-88
2023/05/07 14:56:39;;;;;;;19.67;6.47;;;;;;;;;;10086768;23;20097;-88
2023/05/07 15:00:44;;;;;;;12.18;5.25;;;;;;;;;;10086383;23;20065;-88
2023/05/07 15:04:47;;;;;;;23.35;12.85;;;;;;;;;;10086455;23;20028;-88
2023/05/07 15:08:50;;;;;;;28.27;15.07;;;;;;;;;;10086621;23;20097;-89
2023/05/07 15:12:53;;;;;;;14.25;7.38;;;;;;;;;;10086736;23;20030;-87
2023/05/07 15:16:58;;;;;;;20.23;16.85;;;;;;;;;;10090532;23;20033;-88
2023/05/07 15:21:01;;;;;;;14.82;9.25;;;;;;;;;;10087736;23;20451;-89
2023/05/07 15:25:05;;;;;;;49.10;30.15;;;;;;;;;;10085156;23;20022;-90
2023/05/07 15:29:09;;;;;;;23.40;10.05;;;;;;;;;;10085015;23;20132;-89
2023/05/07 15:33:14;;;;;;;9.48;4.38;;;;;;;;;;10084456;23;20029;-90
2023/05/07 15:37:18;;;;;;;27.27;11.05;;;;;;;;;;10084623;23;20352;-89
2023/05/07 15:41:23;;;;;;;10.73;4.60;;;;;;;;;;10084685;23;20018;-89
2023/05/07 15:45:28;;;;;;;14.82;8.35;;;;;;;;;;10084588;23;20356;-87
2023/05/07 15:49:33;;;;;;;69.15;30.88;;;;;;;;;;10085772;23;20033;-89
2023/05/07 15:53:37;;;;;;;120.10;43.58;;;;;;;;;;10084963;23;20711;-90
2023/05/07 15:57:40;;;;;;;63.28;26.15;;;;;;;;;;10084746;23;20032;-89
2023/05/07 16:01:45;;;;;;;38.20;18.38;;;;;;;;;;10084534;23;20120;-89
2023/05/07 16:05:59;;;;;;;101.05;35.60;;;;;;;;;;10058932;23;20100;-90
2023/05/07 16:10:03;;;;;;;124.43;43.60;;;;;;;;;;10100779;23;20109;-88
2023/05/07 16:14:06;;;;;;;69.82;32.78;;;;;;;;;;10083469;23;20022;-88
2023/05/07 16:18:10;;;;;;;29.50;17.70;;;;;;;;;;10084276;23;20065;-89
2023/05/07 16:22:18;;;;;;;37.20;16.40;;;;;;;;;;10100877;23;20387;-88
2023/05/07 16:26:25;;;;;;;18.48;9.43;;;;;;;;;;10099862;23;20077;-89
2023/05/07 16:30:31;;;;;;;28.85;18.73;;;;;;;;;;10102132;23;20025;-89
2023/05/07 16:34:34;;;;;;;65.63;44.65;;;;;;;;;;10086841;23;20018;-89
2023/05/07 16:38:39;;;;;;;41.67;32.85;;;;;;;;;;10087579;23;20019;-88
2023/05/07 16:42:45;;;;;;;21.83;8.00;;;;;;;;;;10104188;23;20093;-89
2023/05/07 16:46:49;;;;;;;34.00;15.90;;;;;;;;;;10087700;23;20026;-87
2023/05/07 16:50:55;;;;;;;82.93;40.38;;;;;;;;;;10087782;23;20077;-88
2023/05/07 16:55:06;;;;;;;29.13;14.82;;;;;;;;;;10105274;23;20030;-89
2023/05/07 16:59:10;;;;;;;34.45;27.55;;;;;;;;;;10105265;23;20026;-89
2023/05/07 17:03:14;;;;;;;7.95;5.32;;;;;;;;;;10089588;23;20101;-87
2023/05/07 17:07:18;;;;;;;15.18;10.23;;;;;;;;;;10088662;23;20041;-88
2023/05/07 17:11:23;;;;;;;25.65;15.93;;;;;;;;;;10086267;23;20022;-89
2023/05/07 17:15:27;;;;;;;20.35;14.25;;;;;;;;;;10087956;23;20022;-89
2023/05/07 17:19:45;;;;;;;22.95;13.55;;;;;;;;;;10088719;23;20022;-88
2023/05/07 17:23:51;;;;;;;15.38;9.27;;;;;;;;;;10088888;23;20022;-91
2023/05/07 17:27:59;;;;;;;20.88;12.45;;;;;;;;;;10105454;23;20030;-90
2023/05/07 17:32:03;;;;;;;27.38;15.50;;;;;;;;;;10105291;23;20026;-90
2023/05/07 17:36:07;;;;;;;10.10;6.63;;;;;;;;;;10089653;23;20022;-89
2023/05/07 17:40:14;;;;;;;23.65;10.95;;;;;;;;;;10089472;23;20022;-89
2023/05/07 17:44:22;;;;;;;20.10;8.93;;;;;;;;;;10089084;23;20025;-88
2023/05/07 17:48:28;;;;;;;11.43;6.13;;;;;;;;;;10089031;23;20018;-88
2023/05/07 17:52:31;;;;;;;8.80;4.90;;;;;;;;;;10095499;23;20029;-89
2023/05/07 17:56:35;;;;;;;19.08;7.55;;;;;;;;;;10088953;23;20023;-88
2023/05/07 18:00:49;;;;;;;31.85;15.07;;;;;;;;;;10089236;23;20022;-87
2023/05/07 18:04:53;;;;;;;79.30;30.17;;;;;;;;;;10106573;23;20346;-89
2023/05/07 18:08:56;;;;;;;90.72;40.03;;;;;;;;;;10091792;23;20018;-89
2023/05/07 18:12:59;;;;;;;75.70;29.33;;;;;;;;;;10067977;23;20110;-89
2023/05/07 18:17:04;;;;;;;104.90;45.25;;;;;;;;;;10092561;23;20093;-89
2023/05/07 18:21:14;;;;;;;552.90;171.00;;;;;;;;;;10109653;23;20481;-88
2023/05/07 18:25:18;;;;;;;58.65;22.98;;;;;;;;;;10067695;23;20023;-89
2023/05/07 18:29:24;;;;;;;16.27;9.07;;;;;;;;;;10094021;23;20022;-88
2023/05/07 18:33:28;;;;;;;17.77;9.32;;;;;;;;;;10114667;23;20041;-88
2023/05/07 18:37:32;;;;;;;13.25;8.30;;;;;;;;;;10092625;23;20023;-88
2023/05/07 18:41:57;;;;;;;11.73;7.13;;;;;;;;;;10093172;23;20144;-88
2023/05/07 18:46:00;;;;;;;11.98;7.00;;;;;;;;;;10112065;23;20058;-88
2023/05/07 18:50:15;;;;;;;11.77;7.07;;;;;;;;;;10092695;23;20019;-88
2023/05/07 18:54:18;;;;;;;19.92;9.52;;;;;;;;;;10092992;23;20084;-89
2023/05/07 18:58:33;;;;;;;16.42;9.13;;;;;;;;;;10067155;23;20058;-89
2023/05/07 19:02:50;;;;;;;19.50;9.52;;;;;;;;;;10108953;23;20462;-89
2023/05/07 19:07:01;;;;;;;23.17;11.25;;;;;;;;;;10092524;23;20033;-88
2023/05/07 19:11:06;;;;;;;17.92;9.48;;;;;;;;;;10108986;23;20027;-88
2023/05/07 19:15:14;;;;;;;13.65;8.10;;;;;;;;;;10082705;23;20102;-88
2023/05/07 19:19:17;;;;;;;11.57;7.10;;;;;;;;;;10092384;23;20049;-87
2023/05/07 19:23:22;;;;;;;13.95;8.30;;;;;;;;;;10092898;23;20023;-88
2023/05/07 19:27:25;;;;;;;11.27;7.30;;;;;;;;;;10092644;23;20022;-89
2023/05/07 19:31:29;;;;;;;13.32;8.57;;;;;;;;;;10092941;23;20073;-88
2023/05/07 19:35:34;;;;;;;12.80;8.20;;;;;;;;;;10093134;23;20061;-88
2023/05/07 19:39:40;;;;;;;15.13;9.15;;;;;;;;;;10093091;23;20447;-88
2023/05/07 19:43:45;;;;;;;12.60;7.78;;;;;;;;;;10109192;23;20022;-88
2023/05/07 19:47:48;;;;;;;16.83;8.63;;;;;;;;;;10092212;23;20018;-88
2023/05/07 19:51:51;;;;;;;16.60;9.18;;;;;;;;;;10066590;23;20351;-88
2023/05/07 19:56:03;;;;;;;14.80;8.90;;;;;;;;;;10092252;23;20022;-89
2023/05/07 20:00:08;;;;;;;20.73;12.25;;;;;;;;;;10108571;23;20018;-88
2023/05/07 20:04:13;;;;;;;46.22;26.42;;;;;;;;;;10091898;23;20022;-88
2023/05/07 20:08:17;;;;;;;29.35;16.77;;;;;;;;;;10092310;23;20018;-88
2023/05/07 20:12:22;;;;;;;23.08;11.20;;;;;;;;;;10092122;23;20026;-88
2023/05/07 20:16:25;;;;;;;13.93;8.32;;;;;;;;;;10089985;23;20041;-89
2023/05/07 20:20:28;;;;;;;16.10;9.48;;;;;;;;;;10088548;23;20018;-89
2023/05/07 20:24:31;;;;;;;20.88;8.93;;;;;;;;;;10089000;23;20085;-88
2023/05/07 20:28:35;;;;;;;15.90;9.35;;;;;;;;;;10090784;23;20027;-88
2023/05/07 20:32:38;;;;;;;13.13;7.90;;;;;;;;;;10091008;23;20022;-89
2023/05/07 20:36:41;;;;;;;21.20;11.35;;;;;;;;;;10091650;23;20022;-88
2023/05/07 20:40:44;;;;;;;27.15;12.57;;;;;;;;;;10091666;23;20025;-88
2023/05/07 20:44:49;;;;;;;16.98;9.95;;;;;;;;;;10092424;23;20026;-87
2023/05/07 20:48:52;;;;;;;30.42;17.60;;;;;;;;;;10091957;23;20046;-88
2023/05/07 20:52:55;;;;;;;18.35;10.20;;;;;;;;;;10091398;23;20109;-88
2023/05/07 20:56:59;;;;;;;19.65;10.82;;;;;;;;;;10094791;23;20022;-89
2023/05/07 21:01:04;;;;;;;18.33;10.15;;;;;;;;;;10135209;23;20022;-89
2023/05/07 21:05:08;;;;;;;23.08;12.50;;;;;;;;;;10153551;23;20006;-88
2023/05/07 21:09:11;;;;;;;21.58;12.20;;;;;;;;;;10100574;23;20025;-89
2023/05/07 21:13:14;;;;;;;19.23;11.32;;;;;;;;;;10094759;23;20041;-88
2023/05/07 21:17:18;;;;;;;20.10;11.07;;;;;;;;;;10095844;23;20058;-89
2023/05/07 21:21:21;;;;;;;16.95;9.02;;;;;;;;;;10091126;23;20034;-89
2023/05/07 21:25:24;;;;;;;13.43;7.75;;;;;;;;;;10091237;23;20018;-88
2023/05/07 21:29:27;;;;;;;13.35;7.55;;;;;;;;;;10091230;23;20026;-89
2023/05/07 21:33:32;;;;;;;20.92;11.18;;;;;;;;;;10093493;23;20038;-88
2023/05/07 21:37:34;;;;;;;15.25;7.97;;;;;;;;;;10090543;23;20393;-88
2023/05/07 21:41:37;;;;;;;25.45;13.10;;;;;;;;;;10091258;23;20038;-88
2023/05/07 21:45:40;;;;;;;15.02;8.57;;;;;;;;;;10068882;23;20473;-88
2023/05/07 21:49:45;;;;;;;19.55;10.02;;;;;;;;;;10094052;23;20101;-88
2023/05/07 21:53:48;;;;;;;17.52;9.95;;;;;;;;;;10093859;23;20073;-88
2023/05/07 21:57:50;;;;;;;16.58;8.77;;;;;;;;;;10093957;23;20022;-89
2023/05/07 22:01:53;;;;;;;16.25;8.27;;;;;;;;;;10093892;23;20328;-87
2023/05/07 22:05:58;;;;;;;13.98;7.68;;;;;;;;;;10093851;23;20102;-88
2023/05/07 22:10:01;;;;;;;13.10;6.90;;;;;;;;;;10093979;23;20022;-88
2023/05/07 22:14:04;;;;;;;16.17;7.93;;;;;;;;;;10093900;23;20350;-89
2023/05/07 22:18:07;;;;;;;12.02;6.88;;;;;;;;;;10093686;23;20062;-89
2023/05/07 22:22:11;;;;;;;11.13;6.43;;;;;;;;;;10093722;23;20018;-88
2023/05/07 22:26:14;;;;;;;9.75;5.63;;;;;;;;;;10093443;23;20026;-88
2023/05/07 22:30:18;;;;;;;11.93;6.10;;;;;;;;;;10097237;23;20046;-89
2023/05/07 22:34:20;;;;;;;14.55;6.97;;;;;;;;;;10093447;23;20041;-89
2023/05/07 22:38:25;;;;;;;12.52;7.18;;;;;;;;;;10092397;23;20030;-88
2023/05/07 22:42:28;;;;;;;12.23;6.80;;;;;;;;;;10093779;23;20451;-88
2023/05/07 22:46:31;;;;;;;15.60;7.10;;;;;;;;;;10093275;23;20018;-88
2023/05/07 22:50:37;;;;;;;14.00;7.07;;;;;;;;;;10067455;23;20033;-88
2023/05/07 22:54:42;;;;;;;15.13;7.15;;;;;;;;;;10108757;23;20093;-88
2023/05/07 22:58:45;;;;;;;14.65;8.05;;;;;;;;;;10093047;23;20050;-88
2023/05/07 23:02:48;;;;;;;14.85;8.13;;;;;;;;;;10093045;23;20454;-89
2023/05/07 23:06:52;;;;;;;13.80;7.13;;;;;;;;;;10092981;23;20073;-88
2023/05/07 23:10:56;;;;;;;13.73;7.40;;;;;;;;;;10092661;23;20054;-89
2023/05/07 23:14:59;;;;;;;13.35;7.22;;;;;;;;;;10067008;23;20509;-88
2023/05/07 23:19:02;;;;;;;11.05;6.00;;;;;;;;;;10092827;23;20098;-89
2023/05/07 23:23:05;;;;;;;14.70;6.47;;;;;;;;;;10092669;23;20094;-88
2023/05/07 23:27:10;;;;;;;9.80;5.25;;;;;;;;;;10092690;23;20350;-89
2023/05/07 23:31:12;;;;;;;10.15;5.53;;;;;;;;;;10066970;23;20022;-88
2023/05/07 23:35:15;;;;;;;12.85;6.57;;;;;;;;;;10092390;23;20054;-89
2023/05/07 23:39:18;;;;;;;12.60;7.18;;;;;;;;;;10092392;23;20101;-88
2023/05/07 23:43:23;;;;;;;15.50;7.63;;;;;;;;;;10093106;23;20029;-89
2023/05/07 23:47:26;;;;;;;11.77;6.85;;;;;;;;;;10092175;23;20077;-88
2023/05/07 23:51:29;;;;;;;11.50;6.82;;;;;;;;;;10092147;23;20033;-88
2023/05/07 23:55:32;;;;;;;22.25;7.65;;;;;;;;;;10092531;23;20379;-88